createdAt,value
2022-12-14T00:00:09.082Z,0
2022-12-14T00:01:09.719Z,0
2022-12-14T00:02:10.221Z,0
2022-12-14T00:03:11.962Z,0
2022-12-14T00:04:12.430Z,0
2022-12-14T00:05:12.962Z,0
2022-12-14T00:06:13.799Z,0
2022-12-14T00:07:14.270Z,0
2022-12-14T00:08:14.876Z,0
2022-12-14T00:09:15.423Z,0
2022-12-14T00:10:16.045Z,0
2022-12-14T00:11:16.638Z,0
2022-12-14T00:12:17.143Z,0
2022-12-14T00:13:18.763Z,0
2022-12-14T00:14:19.349Z,0
2022-12-14T00:15:20.505Z,0
2022-12-14T00:16:21.248Z,0
2022-12-14T00:17:21.663Z,0
2022-12-14T00:18:22.777Z,0
2022-12-14T00:19:23.113Z,0
2022-12-14T00:20:54.629Z,0
2022-12-14T00:21:55.964Z,0
2022-12-14T00:22:56.411Z,0
2022-12-14T00:23:57.866Z,0
2022-12-14T00:24:58.404Z,0
2022-12-14T00:25:59.070Z,0
2022-12-14T00:26:59.689Z,0
2022-12-14T00:28:00.276Z,0
2022-12-14T00:29:00.820Z,0
2022-12-14T00:30:01.317Z,0
2022-12-14T00:31:02.221Z,0
2022-12-14T00:32:02.717Z,0
2022-12-14T00:33:04.405Z,0
2022-12-14T00:34:04.928Z,0
2022-12-14T00:35:05.499Z,0
2022-12-14T00:36:06.051Z,0
2022-12-14T00:37:07.404Z,0
2022-12-14T00:38:08.062Z,0
2022-12-14T00:39:08.696Z,0
2022-12-14T00:40:09.387Z,0
2022-12-14T00:41:09.884Z,0
2022-12-14T00:42:10.416Z,0
2022-12-14T00:43:11.888Z,0
2022-12-14T00:44:12.455Z,0
2022-12-14T00:45:13.135Z,0
2022-12-14T00:46:14.676Z,0
2022-12-14T00:47:15.192Z,0
2022-12-14T00:48:15.852Z,0
2022-12-14T00:49:16.456Z,0
2022-12-14T00:50:17.049Z,0
2022-12-14T00:51:17.611Z,0
2022-12-14T00:52:18.261Z,0
2022-12-14T00:53:19.368Z,0
2022-12-14T00:54:19.940Z,0
2022-12-14T00:55:20.587Z,0
2022-12-14T00:56:21.166Z,0
2022-12-14T00:57:21.680Z,0
2022-12-14T00:58:22.285Z,0
2022-12-14T00:59:27.215Z,0
2022-12-14T01:00:54.260Z,0
2022-12-14T01:01:55.024Z,0
2022-12-14T01:02:55.510Z,0
2022-12-14T01:03:56.830Z,0
2022-12-14T01:04:57.257Z,0
2022-12-14T01:05:57.835Z,0
2022-12-14T01:06:58.879Z,0
2022-12-14T01:07:59.555Z,0
2022-12-14T01:09:00.120Z,0
2022-12-14T01:10:00.701Z,0
2022-12-14T01:11:01.267Z,0
2022-12-14T01:12:02.373Z,0
2022-12-14T01:13:03.058Z,0
2022-12-14T01:14:04.121Z,0
2022-12-14T01:15:04.613Z,0
2022-12-14T01:16:05.967Z,0
2022-12-14T01:17:06.371Z,0
2022-12-14T01:18:07.159Z,0
2022-12-14T01:19:07.570Z,0
2022-12-14T01:20:08.197Z,0
2022-12-14T01:21:09.370Z,0
2022-12-14T01:22:09.895Z,0
2022-12-14T01:23:11.351Z,0
2022-12-14T01:24:11.856Z,0
2022-12-14T01:25:13.396Z,0
2022-12-14T01:26:14.002Z,0
2022-12-14T01:27:14.641Z,0
2022-12-14T01:28:15.259Z,0
2022-12-14T01:29:15.824Z,0
2022-12-14T01:30:16.442Z,0
2022-12-14T01:31:17.192Z,0
2022-12-14T01:32:17.736Z,0
2022-12-14T01:33:18.886Z,0
2022-12-14T01:34:19.564Z,0
2022-12-14T01:35:20.109Z,0
2022-12-14T01:36:20.724Z,0
2022-12-14T01:37:21.229Z,0
2022-12-14T01:38:21.766Z,0
2022-12-14T01:39:22.765Z,0
2022-12-14T01:40:54.245Z,0
2022-12-14T01:41:54.767Z,0
2022-12-14T01:42:55.368Z,0
2022-12-14T01:43:56.646Z,0
2022-12-14T01:44:57.112Z,0
2022-12-14T01:45:58.356Z,0
2022-12-14T01:46:58.908Z,0
2022-12-14T01:47:59.425Z,0
2022-12-14T01:49:00.124Z,0
2022-12-14T01:50:00.628Z,0
2022-12-14T01:51:01.222Z,0
2022-12-14T01:52:01.811Z,0
2022-12-14T01:53:02.314Z,0
2022-12-14T01:54:03.858Z,0
2022-12-14T01:55:04.315Z,0
2022-12-14T01:56:05.484Z,0
2022-12-14T01:57:06.079Z,0
2022-12-14T01:58:06.577Z,0
2022-12-14T01:59:07.127Z,0
2022-12-14T02:00:07.885Z,0
2022-12-14T02:01:08.340Z,0
2022-12-14T02:02:09.061Z,0
2022-12-14T02:03:09.568Z,0
2022-12-14T02:04:10.818Z,0
2022-12-14T02:05:11.298Z,0
2022-12-14T02:06:12.018Z,0
2022-12-14T02:07:12.608Z,0
2022-12-14T02:08:13.091Z,0
2022-12-14T02:09:13.870Z,0
2022-12-14T02:10:14.358Z,0
2022-12-14T02:11:14.995Z,0
2022-12-14T02:12:15.549Z,0
2022-12-14T02:13:16.050Z,0
2022-12-14T02:14:17.293Z,0
2022-12-14T02:15:17.812Z,0
2022-12-14T02:16:18.996Z,0
2022-12-14T02:17:19.562Z,0
2022-12-14T02:18:20.063Z,0
2022-12-14T02:19:20.770Z,0
2022-12-14T02:20:21.225Z,0
2022-12-14T02:21:21.829Z,0
2022-12-14T02:22:53.030Z,0
2022-12-14T02:23:54.360Z,0
2022-12-14T02:24:54.861Z,0
2022-12-14T02:25:55.476Z,0
2022-12-14T02:26:56.073Z,0
2022-12-14T02:27:56.625Z,0
2022-12-14T02:28:57.288Z,0
2022-12-14T02:29:57.819Z,0
2022-12-14T02:30:58.431Z,0
2022-12-14T02:31:59.860Z,0
2022-12-14T02:33:00.531Z,0
2022-12-14T02:34:01.866Z,0
2022-12-14T02:35:02.519Z,0
2022-12-14T02:36:03.126Z,0
2022-12-14T02:37:03.651Z,0
2022-12-14T02:38:04.348Z,0
2022-12-14T02:39:04.848Z,0
2022-12-14T02:40:05.397Z,0
2022-12-14T02:41:05.985Z,0
2022-12-14T02:42:06.493Z,0
2022-12-14T02:43:07.092Z,0
2022-12-14T02:44:08.424Z,0
2022-12-14T02:45:09.108Z,0
2022-12-14T02:46:09.903Z,0
2022-12-14T02:47:10.382Z,0
2022-12-14T02:48:10.997Z,0
2022-12-14T02:49:11.567Z,0
2022-12-14T02:50:12.273Z,0
2022-12-14T02:51:12.850Z,0
2022-12-14T02:52:13.383Z,0
2022-12-14T02:53:14.006Z,0
2022-12-14T02:54:15.123Z,0
2022-12-14T02:55:15.752Z,0
2022-12-14T02:56:16.864Z,0
2022-12-14T02:57:17.539Z,0
2022-12-14T02:58:18.110Z,0
2022-12-14T02:59:18.616Z,0
2022-12-14T03:00:19.282Z,0
2022-12-14T03:01:19.832Z,0
2022-12-14T03:02:20.547Z,0
2022-12-14T03:03:21.021Z,0
2022-12-14T03:04:52.474Z,0
2022-12-14T03:05:53.031Z,0
2022-12-14T03:06:53.667Z,0
2022-12-14T03:07:54.281Z,0
2022-12-14T03:08:54.844Z,0
2022-12-14T03:09:55.424Z,0
2022-12-14T03:10:55.975Z,0
2022-12-14T03:11:56.608Z,0
2022-12-14T03:12:57.183Z,0
2022-12-14T03:13:58.351Z,0
2022-12-14T03:14:58.963Z,0
2022-12-14T03:15:59.550Z,0
2022-12-14T03:17:00.733Z,0
2022-12-14T03:18:01.253Z,0
2022-12-14T03:19:01.962Z,0
2022-12-14T03:20:02.557Z,0
2022-12-14T03:21:03.128Z,0
2022-12-14T03:22:03.760Z,0
2022-12-14T03:23:04.253Z,0
2022-12-14T03:24:04.825Z,0
2022-12-14T03:25:06.171Z,0
2022-12-14T03:26:06.816Z,0
2022-12-14T03:27:07.277Z,0
2022-12-14T03:28:07.844Z,0
2022-12-14T03:29:08.460Z,0
2022-12-14T03:30:08.943Z,0
2022-12-14T03:31:09.738Z,0
2022-12-14T03:32:10.166Z,0
2022-12-14T03:33:10.731Z,0
2022-12-14T03:34:13.495Z,0
2022-12-14T03:35:12.366Z,0
2022-12-14T03:36:13.113Z,0
2022-12-14T03:37:13.635Z,0
2022-12-14T03:38:14.287Z,0
2022-12-14T03:39:15.849Z,0
2022-12-14T03:40:16.359Z,0
2022-12-14T03:41:17.005Z,0
2022-12-14T03:42:17.495Z,0
2022-12-14T03:43:18.192Z,0
2022-12-14T03:44:19.340Z,0
2022-12-14T03:45:19.863Z,0
2022-12-14T03:46:20.530Z,0
2022-12-14T03:47:51.964Z,0
2022-12-14T03:48:52.669Z,0
2022-12-14T03:49:53.190Z,0
2022-12-14T03:50:53.836Z,0
2022-12-14T03:51:54.367Z,0
2022-12-14T03:52:54.975Z,0
2022-12-14T03:53:55.517Z,0
2022-12-14T03:54:56.646Z,0
2022-12-14T03:55:57.377Z,0
2022-12-14T03:56:57.917Z,0
2022-12-14T03:57:58.399Z,0
2022-12-14T03:58:58.986Z,0
2022-12-14T03:59:59.508Z,0
2022-12-14T04:01:00.199Z,0
2022-12-14T04:02:00.929Z,0
2022-12-14T04:03:01.483Z,0
2022-12-14T04:04:01.979Z,0
2022-12-14T04:05:03.207Z,0
2022-12-14T04:06:03.812Z,0
2022-12-14T04:07:04.407Z,0
2022-12-14T04:08:05.009Z,0
2022-12-14T04:09:06.348Z,0
2022-12-14T04:10:06.982Z,0
2022-12-14T04:11:07.531Z,0
2022-12-14T04:12:08.103Z,0
2022-12-14T04:13:08.889Z,0
2022-12-14T04:14:09.411Z,0
2022-12-14T04:15:10.588Z,0
2022-12-14T04:16:11.325Z,0
2022-12-14T04:17:11.860Z,0
2022-12-14T04:18:13.310Z,0
2022-12-14T04:19:13.841Z,0
2022-12-14T04:20:14.462Z,0
2022-12-14T04:21:14.987Z,0
2022-12-14T04:22:15.543Z,0
2022-12-14T04:23:16.055Z,0
2022-12-14T04:24:16.614Z,0
2022-12-14T04:25:18.227Z,0
2022-12-14T04:26:18.781Z,0
2022-12-14T04:27:19.362Z,0
2022-12-14T04:28:19.971Z,0
2022-12-14T04:29:20.982Z,0
2022-12-14T04:30:52.034Z,0
2022-12-14T04:31:52.754Z,0
2022-12-14T04:32:54.164Z,0
2022-12-14T04:33:54.631Z,0
2022-12-14T04:34:56.263Z,0
2022-12-14T04:35:56.796Z,0
2022-12-14T04:36:57.400Z,0
2022-12-14T04:37:58.001Z,0
2022-12-14T04:38:58.491Z,0
2022-12-14T04:39:59.072Z,0
2022-12-14T04:40:59.632Z,0
2022-12-14T04:42:00.312Z,0
2022-12-14T04:43:00.902Z,0
2022-12-14T04:44:01.398Z,0
2022-12-14T04:45:02.702Z,0
2022-12-14T04:46:03.258Z,0
2022-12-14T04:47:03.785Z,0
2022-12-14T04:48:04.369Z,0
2022-12-14T04:49:04.891Z,0
2022-12-14T04:50:05.505Z,0
2022-12-14T04:51:06.027Z,0
2022-12-14T04:52:06.584Z,0
2022-12-14T04:53:07.165Z,0
2022-12-14T04:54:07.700Z,0
2022-12-14T04:55:09.251Z,0
2022-12-14T04:56:09.785Z,0
2022-12-14T04:57:13.289Z,0
2022-12-14T04:58:10.980Z,0
2022-12-14T04:59:12.406Z,0
2022-12-14T05:00:12.997Z,0
2022-12-14T05:01:13.718Z,0
2022-12-14T05:02:14.288Z,0
2022-12-14T05:03:14.804Z,0
2022-12-14T05:04:15.308Z,0
2022-12-14T05:05:16.626Z,0
2022-12-14T05:06:17.195Z,0
2022-12-14T05:07:17.765Z,0
2022-12-14T05:08:18.307Z,0
2022-12-14T05:09:19.329Z,0
2022-12-14T05:10:20.401Z,0
2022-12-14T05:11:54.086Z,0
2022-12-14T05:12:51.922Z,0
2022-12-14T05:13:52.571Z,0
2022-12-14T05:14:53.855Z,0
2022-12-14T05:15:54.338Z,0
2022-12-14T05:16:55.031Z,0
2022-12-14T05:17:55.603Z,0
2022-12-14T05:18:56.152Z,0
2022-12-14T05:19:57.683Z,0
2022-12-14T05:20:58.238Z,0
2022-12-14T05:21:58.840Z,0
2022-12-14T05:22:59.416Z,0
2022-12-14T05:24:00.197Z,0
2022-12-14T05:25:01.344Z,0
2022-12-14T05:26:01.898Z,0
2022-12-14T05:27:02.407Z,0
2022-12-14T05:28:03.006Z,0
2022-12-14T05:29:03.594Z,0
2022-12-14T05:30:04.250Z,0
2022-12-14T05:31:04.909Z,0
2022-12-14T05:32:05.411Z,0
2022-12-14T05:33:05.998Z,0
2022-12-14T05:34:06.584Z,0
2022-12-14T05:35:07.172Z,0
2022-12-14T05:36:07.729Z,0
2022-12-14T05:37:10.511Z,0
2022-12-14T05:38:08.970Z,0
2022-12-14T05:39:09.485Z,0
2022-12-14T05:40:10.122Z,0
2022-12-14T05:41:10.731Z,0
2022-12-14T05:42:11.339Z,0
2022-12-14T05:43:11.944Z,0
2022-12-14T05:44:12.496Z,0
2022-12-14T05:45:13.892Z,0
2022-12-14T05:46:14.525Z,0
2022-12-14T05:47:15.845Z,0
2022-12-14T05:48:16.362Z,0
2022-12-14T05:49:17.068Z,0
2022-12-14T05:50:17.644Z,0
2022-12-14T05:51:18.183Z,0
2022-12-14T05:52:18.843Z,0
2022-12-14T05:53:19.412Z,0
2022-12-14T05:54:50.530Z,0
2022-12-14T05:55:51.607Z,0
2022-12-14T05:56:52.519Z,0
2022-12-14T05:57:53.073Z,0
2022-12-14T05:58:53.592Z,0
2022-12-14T05:59:54.323Z,0
2022-12-14T06:00:54.830Z,0
2022-12-14T06:01:55.406Z,0
2022-12-14T06:02:55.998Z,0
2022-12-14T06:03:56.615Z,0
2022-12-14T06:04:57.892Z,0
2022-12-14T06:05:58.347Z,0
2022-12-14T06:06:58.973Z,0
2022-12-14T06:07:59.587Z,0
2022-12-14T06:09:00.102Z,0
2022-12-14T06:10:00.830Z,0
2022-12-14T06:11:02.119Z,0
2022-12-14T06:12:02.729Z,0
2022-12-14T06:13:03.272Z,0
2022-12-14T06:14:03.806Z,0
2022-12-14T06:15:05.407Z,0
2022-12-14T06:16:05.899Z,0
2022-12-14T06:17:06.519Z,0
2022-12-14T06:18:07.043Z,0
2022-12-14T06:19:08.426Z,0
2022-12-14T06:20:09.040Z,0
2022-12-14T06:21:09.586Z,0
2022-12-14T06:22:10.293Z,0
2022-12-14T06:23:10.810Z,0
2022-12-14T06:24:11.467Z,0
2022-12-14T06:25:12.858Z,0
2022-12-14T06:26:13.352Z,0
2022-12-14T06:27:13.987Z,0
2022-12-14T06:28:14.498Z,0
2022-12-14T06:29:15.832Z,0
2022-12-14T06:30:16.368Z,0
2022-12-14T06:31:16.963Z,0
2022-12-14T06:32:17.488Z,0
2022-12-14T06:33:18.026Z,0
2022-12-14T06:34:19.195Z,0
2022-12-14T06:35:50.692Z,0
2022-12-14T06:36:51.204Z,0
2022-12-14T06:37:51.718Z,0
2022-12-14T06:38:52.479Z,0
2022-12-14T06:39:54.599Z,0
2022-12-14T06:40:53.642Z,0
2022-12-14T06:41:54.168Z,0
2022-12-14T06:42:54.685Z,0
2022-12-14T06:43:55.233Z,0
2022-12-14T06:44:55.748Z,0
2022-12-14T06:45:57.363Z,0
2022-12-14T06:46:57.832Z,0
2022-12-14T06:47:58.451Z,0
2022-12-14T06:48:59.005Z,0
2022-12-14T06:50:00.202Z,4
2022-12-14T06:51:00.809Z,4
2022-12-14T06:52:01.304Z,0
2022-12-14T06:53:01.923Z,4
2022-12-14T06:54:02.460Z,4
2022-12-14T06:55:03.098Z,4
2022-12-14T06:56:04.619Z,4
2022-12-14T06:57:05.099Z,4
2022-12-14T06:58:05.765Z,4
2022-12-14T06:59:06.292Z,8
2022-12-14T07:00:06.824Z,4
2022-12-14T07:01:07.537Z,8
2022-12-14T07:02:09.081Z,8
2022-12-14T07:03:09.600Z,12
2022-12-14T07:04:10.037Z,12
2022-12-14T07:05:10.704Z,12
2022-12-14T07:06:12.110Z,12
2022-12-14T07:07:12.716Z,8
2022-12-14T07:08:13.225Z,12
2022-12-14T07:09:13.786Z,12
2022-12-14T07:10:14.343Z,16
2022-12-14T07:11:14.874Z,12
2022-12-14T07:12:15.521Z,12
2022-12-14T07:13:16.096Z,12
2022-12-14T07:14:16.635Z,16
2022-12-14T07:15:17.196Z,16
2022-12-14T07:16:19.160Z,20
2022-12-14T07:17:50.088Z,24
2022-12-14T07:18:50.652Z,24
2022-12-14T07:19:51.225Z,24
2022-12-14T07:20:51.750Z,32
2022-12-14T07:21:52.741Z,32
2022-12-14T07:22:53.207Z,36
2022-12-14T07:23:53.769Z,40
2022-12-14T07:24:54.280Z,40
2022-12-14T07:25:55.590Z,44
2022-12-14T07:26:56.278Z,52
2022-12-14T07:27:56.755Z,52
2022-12-14T07:28:57.329Z,60
2022-12-14T07:29:57.945Z,64
2022-12-14T07:30:58.529Z,72
2022-12-14T07:31:59.114Z,80
2022-12-14T07:32:59.617Z,80
2022-12-14T07:34:00.337Z,84
2022-12-14T07:35:00.835Z,88
2022-12-14T07:36:02.104Z,88
2022-12-14T07:37:02.740Z,92
2022-12-14T07:38:03.234Z,88
2022-12-14T07:39:03.799Z,88
2022-12-14T07:40:04.400Z,88
2022-12-14T07:41:04.925Z,88
2022-12-14T07:42:05.607Z,92
2022-12-14T07:43:06.094Z,92
2022-12-14T07:44:06.714Z,92
2022-12-14T07:45:07.209Z,100
2022-12-14T07:46:08.732Z,108
2022-12-14T07:47:12.570Z,112
2022-12-14T07:48:09.706Z,116
2022-12-14T07:49:11.357Z,136
2022-12-14T07:50:11.842Z,152
2022-12-14T07:51:12.398Z,168
2022-12-14T07:52:13.029Z,176
2022-12-14T07:53:13.528Z,188
2022-12-14T07:54:14.147Z,196
2022-12-14T07:55:14.698Z,196
2022-12-14T07:56:16.237Z,192
2022-12-14T07:57:16.822Z,188
2022-12-14T07:58:17.409Z,176
2022-12-14T07:59:17.952Z,180
2022-12-14T08:00:48.925Z,188
2022-12-14T08:01:50.459Z,192
2022-12-14T08:02:51.183Z,192
2022-12-14T08:03:51.548Z,184
2022-12-14T08:04:52.106Z,176
2022-12-14T08:05:53.321Z,188
2022-12-14T08:06:54.126Z,188
2022-12-14T08:07:54.375Z,196
2022-12-14T08:08:54.955Z,208
2022-12-14T08:09:55.454Z,200
2022-12-14T08:10:56.039Z,212
2022-12-14T08:11:56.572Z,220
2022-12-14T08:12:57.170Z,236
2022-12-14T08:13:57.771Z,276
2022-12-14T08:14:58.282Z,312
2022-12-14T08:15:59.984Z,340
2022-12-14T08:17:00.489Z,392
2022-12-14T08:18:01.962Z,460
2022-12-14T08:19:02.498Z,444
2022-12-14T08:20:03.012Z,460
2022-12-14T08:21:03.676Z,452
2022-12-14T08:22:04.224Z,476
2022-12-14T08:23:04.837Z,428
2022-12-14T08:24:05.316Z,412
2022-12-14T08:25:06.008Z,380
2022-12-14T08:26:07.300Z,376
2022-12-14T08:27:07.830Z,352
2022-12-14T08:28:08.504Z,368
2022-12-14T08:29:09.826Z,420
2022-12-14T08:30:10.412Z,420
2022-12-14T08:31:11.089Z,420
2022-12-14T08:32:11.524Z,420
2022-12-14T08:33:12.144Z,412
2022-12-14T08:34:12.630Z,396
2022-12-14T08:35:13.253Z,388
2022-12-14T08:36:13.788Z,372
2022-12-14T08:37:14.958Z,372
2022-12-14T08:38:15.577Z,388
2022-12-14T08:39:16.046Z,392
2022-12-14T08:40:16.741Z,324
2022-12-14T08:41:48.444Z,296
2022-12-14T08:42:48.982Z,292
2022-12-14T08:43:49.497Z,308
2022-12-14T08:44:50.684Z,300
2022-12-14T08:45:51.221Z,300
2022-12-14T08:46:51.777Z,320
2022-12-14T08:47:52.533Z,308
2022-12-14T08:48:53.581Z,284
2022-12-14T08:49:54.151Z,252
2022-12-14T08:50:54.694Z,232
2022-12-14T08:51:55.309Z,228
2022-12-14T08:52:55.878Z,252
2022-12-14T08:53:56.392Z,284
2022-12-14T08:54:56.913Z,308
2022-12-14T08:55:57.425Z,352
2022-12-14T08:56:58.576Z,364
2022-12-14T08:57:59.246Z,352
2022-12-14T08:58:59.808Z,336
2022-12-14T09:00:02.059Z,304
2022-12-14T09:01:00.974Z,304
2022-12-14T09:02:01.534Z,320
2022-12-14T09:03:02.160Z,340
2022-12-14T09:04:02.526Z,340
2022-12-14T09:05:03.130Z,316
2022-12-14T09:06:04.323Z,320
2022-12-14T09:07:04.818Z,344
2022-12-14T09:08:06.302Z,356
2022-12-14T09:09:11.897Z,312
2022-12-14T09:10:07.374Z,284
2022-12-14T09:11:07.968Z,276
2022-12-14T09:12:08.720Z,284
2022-12-14T09:13:09.391Z,280
2022-12-14T09:14:10.009Z,280
2022-12-14T09:15:10.571Z,300
2022-12-14T09:16:11.934Z,316
2022-12-14T09:17:12.340Z,340
2022-12-14T09:18:12.968Z,360
2022-12-14T09:19:14.352Z,408
2022-12-14T09:20:14.925Z,452
2022-12-14T09:21:15.479Z,492
2022-12-14T09:22:16.061Z,516
2022-12-14T09:23:16.689Z,464
2022-12-14T09:24:48.003Z,480
2022-12-14T09:25:48.529Z,468
2022-12-14T09:26:49.573Z,424
2022-12-14T09:27:50.204Z,372
2022-12-14T09:28:50.812Z,356
2022-12-14T09:29:51.369Z,360
2022-12-14T09:30:51.994Z,416
2022-12-14T09:31:52.576Z,484
2022-12-14T09:32:54.213Z,436
2022-12-14T09:33:54.718Z,440
2022-12-14T09:34:55.444Z,548
2022-12-14T09:35:55.975Z,684
2022-12-14T09:36:57.064Z,640
2022-12-14T09:37:57.723Z,656
2022-12-14T09:38:58.322Z,704
2022-12-14T09:39:58.827Z,680
2022-12-14T09:40:59.306Z,692
2022-12-14T09:42:01.187Z,680
2022-12-14T09:43:00.460Z,624
2022-12-14T09:44:01.064Z,596
2022-12-14T09:45:01.695Z,656
2022-12-14T09:46:02.238Z,688
2022-12-14T09:47:03.603Z,668
2022-12-14T09:48:04.222Z,668
2022-12-14T09:49:04.742Z,644
2022-12-14T09:50:06.245Z,704
2022-12-14T09:51:06.750Z,740
2022-12-14T09:52:07.351Z,716
2022-12-14T09:53:07.936Z,652
2022-12-14T09:54:08.437Z,640
2022-12-14T09:55:09.065Z,736
2022-12-14T09:56:09.590Z,812
2022-12-14T09:57:11.190Z,764
2022-12-14T09:58:11.776Z,672
2022-12-14T09:59:12.467Z,608
2022-12-14T10:00:13.085Z,672
2022-12-14T10:01:13.772Z,756
2022-12-14T10:02:30.194Z,788
2022-12-14T10:03:14.949Z,828
2022-12-14T10:04:15.525Z,872
2022-12-14T10:05:15.990Z,860
2022-12-14T10:06:16.602Z,1036
2022-12-14T10:07:48.364Z,1016
2022-12-14T10:08:54.403Z,1008
2022-12-14T10:09:50.063Z,772
2022-12-14T10:10:50.796Z,732
2022-12-14T10:11:51.244Z,528
2022-12-14T10:12:51.781Z,520
2022-12-14T10:13:52.554Z,564
2022-12-14T10:14:53.584Z,572
2022-12-14T10:15:54.275Z,488
2022-12-14T10:16:55.414Z,432
2022-12-14T10:17:55.932Z,404
2022-12-14T10:19:00.081Z,408
2022-12-14T10:19:57.144Z,440
2022-12-14T10:20:57.750Z,484
2022-12-14T10:21:58.228Z,520
2022-12-14T10:22:58.804Z,584
2022-12-14T10:23:59.350Z,620
2022-12-14T10:25:00.819Z,608
2022-12-14T10:26:01.476Z,648
2022-12-14T10:27:01.980Z,696
2022-12-14T10:28:10.778Z,660
2022-12-14T10:29:04.061Z,640
2022-12-14T10:30:04.684Z,764
2022-12-14T10:31:05.219Z,784
2022-12-14T10:32:05.769Z,792
2022-12-14T10:33:06.269Z,728
2022-12-14T10:34:12.013Z,628
2022-12-14T10:35:07.426Z,624
2022-12-14T10:36:08.109Z,620
2022-12-14T10:37:09.270Z,612
2022-12-14T10:38:09.833Z,732
2022-12-14T10:39:10.326Z,852
2022-12-14T10:40:15.772Z,848
2022-12-14T10:41:12.267Z,904
2022-12-14T10:42:12.724Z,924
2022-12-14T10:43:13.293Z,812
2022-12-14T10:44:13.776Z,708
2022-12-14T10:45:39.821Z,648
2022-12-14T10:46:15.203Z,504
2022-12-14T10:47:16.619Z,532
2022-12-14T10:48:48.344Z,632
2022-12-14T10:49:48.929Z,864
2022-12-14T10:50:49.938Z,828
2022-12-14T10:51:50.127Z,724
2022-12-14T10:52:50.673Z,776
2022-12-14T10:53:51.340Z,648
2022-12-14T10:54:51.935Z,604
2022-12-14T10:55:52.583Z,604
2022-12-14T10:56:53.958Z,616
2022-12-14T10:57:54.403Z,728
2022-12-14T10:58:54.989Z,888
2022-12-14T11:00:08.478Z,992
2022-12-14T11:00:56.221Z,1024
2022-12-14T11:01:57.031Z,1088
2022-12-14T11:02:57.541Z,1224
2022-12-14T11:03:57.959Z,1240
2022-12-14T11:04:58.486Z,1160
2022-12-14T11:05:59.085Z,1052
2022-12-14T11:07:00.346Z,980
2022-12-14T11:08:00.859Z,856
2022-12-14T11:09:01.507Z,780
2022-12-14T11:10:02.014Z,708
2022-12-14T11:11:02.601Z,692
2022-12-14T11:12:03.256Z,696
2022-12-14T11:13:03.693Z,776
2022-12-14T11:14:04.289Z,1000
2022-12-14T11:15:04.793Z,1232
2022-12-14T11:16:06.088Z,1336
2022-12-14T11:17:07.490Z,1468
2022-12-14T11:18:07.954Z,1564
2022-12-14T11:19:08.444Z,1604
2022-12-14T11:20:09.595Z,1628
2022-12-14T11:21:10.227Z,1700
2022-12-14T11:22:10.756Z,1788
2022-12-14T11:23:11.353Z,1928
2022-12-14T11:24:11.925Z,2036
2022-12-14T11:25:12.462Z,2088
2022-12-14T11:26:13.008Z,2032
2022-12-14T11:27:14.342Z,1992
2022-12-14T11:28:14.907Z,2116
2022-12-14T11:29:15.468Z,2068
2022-12-14T11:30:47.117Z,1988
2022-12-14T11:31:47.685Z,1940
2022-12-14T11:32:48.309Z,1984
2022-12-14T11:33:50.471Z,2092
2022-12-14T11:34:49.388Z,2352
2022-12-14T11:35:49.935Z,2876
2022-12-14T11:36:50.466Z,2556
2022-12-14T11:37:51.652Z,2664
2022-12-14T11:38:52.413Z,2120
2022-12-14T11:39:52.914Z,2124
2022-12-14T11:40:53.623Z,2008
2022-12-14T11:41:54.159Z,1632
2022-12-14T11:42:54.831Z,1556
2022-12-14T11:43:55.310Z,1592
2022-12-14T11:44:55.818Z,1452
2022-12-14T11:45:57.339Z,1220
2022-12-14T11:46:58.032Z,1052
2022-12-14T11:47:59.163Z,1024
2022-12-14T11:48:59.738Z,952
2022-12-14T11:50:01.117Z,876
2022-12-14T11:51:01.667Z,872
2022-12-14T11:52:02.213Z,852
2022-12-14T11:53:06.328Z,872
2022-12-14T11:54:03.384Z,868
2022-12-14T11:55:04.875Z,900
2022-12-14T11:56:05.466Z,904
2022-12-14T11:57:06.002Z,868
2022-12-14T11:58:07.300Z,832
2022-12-14T11:59:07.790Z,844
2022-12-14T12:00:08.370Z,884
2022-12-14T12:01:09.016Z,988
2022-12-14T12:02:09.551Z,1308
2022-12-14T12:03:10.177Z,1536
2022-12-14T12:04:10.710Z,1608
2022-12-14T12:05:11.242Z,1548
2022-12-14T12:06:11.790Z,1244
2022-12-14T12:07:12.880Z,1168
2022-12-14T12:08:13.516Z,1148
2022-12-14T12:09:14.815Z,1096
2022-12-14T12:10:49.830Z,1024
2022-12-14T12:11:46.659Z,956
2022-12-14T12:12:52.285Z,916
2022-12-14T12:13:48.701Z,892
2022-12-14T12:14:49.267Z,852
2022-12-14T12:15:50.923Z,880
2022-12-14T12:16:51.302Z,1048
2022-12-14T12:17:52.687Z,1172
2022-12-14T12:18:53.225Z,1240
2022-12-14T12:19:54.426Z,1288
2022-12-14T12:20:55.018Z,1220
2022-12-14T12:21:55.564Z,1224
2022-12-14T12:22:56.187Z,1160
2022-12-14T12:23:56.733Z,1056
2022-12-14T12:25:24.291Z,844
2022-12-14T12:25:58.685Z,732
2022-12-14T12:26:59.278Z,664
2022-12-14T12:28:00.561Z,624
2022-12-14T12:29:01.103Z,596
2022-12-14T12:30:01.699Z,576
2022-12-14T12:31:06.013Z,552
2022-12-14T12:32:02.756Z,584
2022-12-14T12:33:03.285Z,612
2022-12-14T12:34:03.837Z,668
2022-12-14T12:35:11.951Z,652
2022-12-14T12:36:05.420Z,540
2022-12-14T12:37:26.289Z,492
2022-12-14T12:38:08.178Z,484
2022-12-14T12:39:08.759Z,520
2022-12-14T12:40:09.377Z,548
2022-12-14T12:41:09.921Z,576
2022-12-14T12:42:10.412Z,612
2022-12-14T12:43:11.005Z,664
2022-12-14T12:44:11.523Z,668
2022-12-14T12:45:12.097Z,612
2022-12-14T12:46:12.674Z,532
2022-12-14T12:47:26.493Z,484
2022-12-14T12:48:15.068Z,560
2022-12-14T12:49:45.843Z,580
2022-12-14T12:50:49.663Z,568
2022-12-14T12:51:46.990Z,556
2022-12-14T12:52:48.128Z,572
2022-12-14T12:53:48.639Z,580
2022-12-14T12:54:49.282Z,616
2022-12-14T12:55:49.946Z,660
2022-12-14T12:56:51.190Z,628
2022-12-14T12:57:52.638Z,572
2022-12-14T12:58:53.424Z,528
2022-12-14T12:59:53.822Z,504
2022-12-14T13:00:54.346Z,472
2022-12-14T13:01:55.081Z,460
2022-12-14T13:02:55.745Z,472
2022-12-14T13:03:56.092Z,468
2022-12-14T13:04:56.730Z,452
2022-12-14T13:05:57.208Z,452
2022-12-14T13:06:58.423Z,476
2022-12-14T13:07:58.965Z,488
2022-12-14T13:09:00.297Z,480
2022-12-14T13:10:05.534Z,496
2022-12-14T13:11:24.989Z,492
2022-12-14T13:12:01.915Z,476
2022-12-14T13:13:02.478Z,468
2022-12-14T13:14:03.077Z,504
2022-12-14T13:15:03.739Z,516
2022-12-14T13:16:04.253Z,536
2022-12-14T13:17:05.794Z,540
2022-12-14T13:18:06.302Z,504
2022-12-14T13:19:32.463Z,476
2022-12-14T13:20:08.282Z,472
2022-12-14T13:21:08.697Z,428
2022-12-14T13:22:13.387Z,384
2022-12-14T13:23:43.088Z,384
2022-12-14T13:24:10.439Z,388
2022-12-14T13:25:11.035Z,368
2022-12-14T13:26:13.452Z,384
2022-12-14T13:27:17.075Z,360
2022-12-14T13:28:13.544Z,356
2022-12-14T13:29:14.139Z,336
2022-12-14T13:30:45.141Z,352
2022-12-14T13:31:45.648Z,408
2022-12-14T13:32:46.118Z,456
2022-12-14T13:33:46.780Z,544
2022-12-14T13:34:47.163Z,576
2022-12-14T13:35:47.811Z,628
2022-12-14T13:36:48.412Z,688
2022-12-14T13:37:49.797Z,584
2022-12-14T13:38:50.426Z,612
2022-12-14T13:39:51.028Z,576
2022-12-14T13:40:51.616Z,492
2022-12-14T13:41:52.135Z,472
2022-12-14T13:42:53.001Z,432
2022-12-14T13:43:53.571Z,424
2022-12-14T13:44:54.103Z,432
2022-12-14T13:45:54.717Z,372
2022-12-14T13:46:55.285Z,328
2022-12-14T13:47:56.337Z,304
2022-12-14T13:48:56.922Z,328
2022-12-14T13:50:34.790Z,320
2022-12-14T13:51:01.831Z,292
2022-12-14T13:51:59.536Z,280
2022-12-14T13:53:00.087Z,300
2022-12-14T13:54:00.797Z,304
2022-12-14T13:55:01.312Z,328
2022-12-14T13:56:01.884Z,344
2022-12-14T13:57:02.451Z,312
2022-12-14T13:58:03.811Z,300
2022-12-14T13:59:04.437Z,308
2022-12-14T14:00:04.950Z,328
2022-12-14T14:01:05.530Z,328
2022-12-14T14:02:06.071Z,312
2022-12-14T14:03:06.690Z,296
2022-12-14T14:04:07.424Z,288
2022-12-14T14:05:07.828Z,292
2022-12-14T14:06:08.372Z,304
2022-12-14T14:07:09.676Z,340
2022-12-14T14:08:10.811Z,336
2022-12-14T14:09:11.528Z,332
2022-12-14T14:10:12.127Z,320
2022-12-14T14:12:13.164Z,292
2022-12-14T14:13:14.176Z,328
2022-12-14T14:14:45.033Z,356
2022-12-14T14:16:11.286Z,376
2022-12-14T14:16:46.328Z,404
2022-12-14T14:17:46.806Z,432
2022-12-14T14:18:48.011Z,456
2022-12-14T14:19:49.421Z,456
2022-12-14T14:20:53.809Z,436
2022-12-14T14:22:14.019Z,416
2022-12-14T14:22:50.774Z,412
2022-12-14T14:23:51.311Z,432
2022-12-14T14:24:51.848Z,396
2022-12-14T14:25:52.668Z,412
2022-12-14T14:26:53.217Z,424
2022-12-14T14:27:54.659Z,392
2022-12-14T14:28:56.033Z,388
2022-12-14T14:29:56.635Z,392
2022-12-14T14:30:57.184Z,456
2022-12-14T14:31:57.798Z,464
2022-12-14T14:33:13.541Z,376
2022-12-14T14:33:59.537Z,308
2022-12-14T14:35:00.135Z,272